createdAt,value
2019-03-08T00:01:40.925Z,2.10
2019-03-08T00:04:09.817Z,6.17
2019-03-08T00:06:38.412Z,5.03
2019-03-08T00:09:09.021Z,2.77
2019-03-08T00:11:37.503Z,1.00
2019-03-08T00:14:06.520Z,1.50
2019-03-08T00:16:35.100Z,5.30
2019-03-08T00:19:03.919Z,1.73
2019-03-08T00:21:32.861Z,4.30
2019-03-08T00:24:01.540Z,1.97
2019-03-08T00:26:30.212Z,2.20
2019-03-08T00:28:59.034Z,5.57
2019-03-08T00:31:27.758Z,5.00
2019-03-08T00:33:56.347Z,1.63
2019-03-08T00:36:25.032Z,1.60
2019-03-08T00:38:53.653Z,2.70
2019-03-08T00:41:22.518Z,4.23
2019-03-08T00:43:51.102Z,4.70
2019-03-08T00:46:20.014Z,4.70
2019-03-08T00:48:48.614Z,5.73
2019-03-08T00:51:17.284Z,7.30
2019-03-08T00:53:45.860Z,1.70
2019-03-08T00:56:14.470Z,6.13
2019-03-08T00:58:43.339Z,1.30
2019-03-08T01:01:12.273Z,3.27
2019-03-08T01:03:40.896Z,1.67
2019-03-08T01:06:09.799Z,6.97
2019-03-08T01:08:38.365Z,3.43
2019-03-08T01:11:07.279Z,6.93
2019-03-08T01:13:35.938Z,8.20
2019-03-08T01:16:04.870Z,3.17
2019-03-08T01:18:33.487Z,5.00
2019-03-08T01:21:02.332Z,2.83
2019-03-08T01:23:30.945Z,1.40
2019-03-08T01:25:59.620Z,1.33
2019-03-08T01:28:28.435Z,3.77
2019-03-08T01:30:57.192Z,4.53
2019-03-08T01:33:26.205Z,1.53
2019-03-08T01:35:54.922Z,2.00
2019-03-08T01:38:23.713Z,1.90
2019-03-08T01:40:52.288Z,2.93
2019-03-08T01:43:20.875Z,1.73
2019-03-08T01:45:49.521Z,2.23
2019-03-08T01:48:18.194Z,2.40
2019-03-08T01:50:46.810Z,2.30
2019-03-08T01:53:15.387Z,1.80
2019-03-08T01:55:44.523Z,2.40
2019-03-08T01:58:13.263Z,5.80
2019-03-08T02:00:42.163Z,2.30
2019-03-08T02:03:10.986Z,4.03
2019-03-08T02:05:39.612Z,2.43
2019-03-08T02:08:08.215Z,4.17
2019-03-08T02:10:37.228Z,4.73
2019-03-08T02:13:06.402Z,7.60
2019-03-08T02:15:35.186Z,1.73
2019-03-08T02:18:04.459Z,4.33
2019-03-08T02:20:33.386Z,2.87
2019-03-08T02:23:02.005Z,2.23
2019-03-08T02:25:30.884Z,4.90
2019-03-08T02:27:59.460Z,3.03
2019-03-08T02:30:28.138Z,1.60
2019-03-08T02:32:56.820Z,1.57
2019-03-08T02:35:25.416Z,2.10
2019-03-08T02:37:54.143Z,5.40
2019-03-08T02:40:31.090Z,8.03
2019-03-08T02:43:00.453Z,2.63
2019-03-08T02:45:29.334Z,2.53
2019-03-08T02:47:57.946Z,2.73
2019-03-08T02:50:26.534Z,1.57
2019-03-08T02:52:55.375Z,2.23
2019-03-08T02:55:24.015Z,1.40
2019-03-08T02:57:53.031Z,1.40
2019-03-08T03:00:21.656Z,3.00
2019-03-08T03:02:50.322Z,3.37
2019-03-08T03:05:19.278Z,4.17
2019-03-08T03:07:48.107Z,2.63
2019-03-08T03:10:16.890Z,3.03
2019-03-08T03:12:45.472Z,3.27
2019-03-08T03:15:14.300Z,3.60
2019-03-08T03:17:42.897Z,7.63
2019-03-08T03:20:11.674Z,1.37
2019-03-08T03:22:40.580Z,2.50
2019-03-08T03:25:09.368Z,1.30
2019-03-08T03:27:38.376Z,2.30
2019-03-08T03:30:07.735Z,1.57
2019-03-08T03:32:36.386Z,1.40
2019-03-08T03:35:05.441Z,1.23
2019-03-08T03:37:34.287Z,1.33
2019-03-08T03:40:03.401Z,1.70
2019-03-08T03:42:32.269Z,1.50
2019-03-08T03:45:00.976Z,1.80
2019-03-08T03:47:29.633Z,1.97
2019-03-08T03:49:58.498Z,1.63
2019-03-08T03:52:27.378Z,2.30
2019-03-08T03:54:56.626Z,4.30
2019-03-08T03:57:25.472Z,1.67
2019-03-08T03:59:54.099Z,1.70
2019-03-08T04:02:22.929Z,1.60
2019-03-08T04:04:51.782Z,3.53
2019-03-08T04:07:20.364Z,1.43
2019-03-08T04:09:49.392Z,1.60
2019-03-08T04:12:17.976Z,1.70
2019-03-08T04:14:46.607Z,1.60
2019-03-08T04:17:15.253Z,2.27
2019-03-08T04:19:43.876Z,2.77
2019-03-08T04:22:12.743Z,1.90
2019-03-08T04:24:41.538Z,1.80
2019-03-08T04:27:10.119Z,1.70
2019-03-08T04:29:38.939Z,2.00
2019-03-08T04:32:07.799Z,4.13
2019-03-08T04:34:36.689Z,2.63
2019-03-08T04:37:05.545Z,2.70
2019-03-08T04:39:34.123Z,2.87
2019-03-08T04:42:02.740Z,2.93
2019-03-08T04:44:31.799Z,2.13
2019-03-08T04:47:00.389Z,2.40
2019-03-08T04:49:28.966Z,1.60
2019-03-08T04:51:57.559Z,1.43
2019-03-08T04:54:26.140Z,1.53
2019-03-08T04:56:54.744Z,2.13
2019-03-08T04:59:23.552Z,1.80
2019-03-08T05:01:52.186Z,3.77
2019-03-08T05:04:20.769Z,3.70
2019-03-08T05:06:49.376Z,2.07
2019-03-08T05:09:17.978Z,1.40
2019-03-08T05:11:46.635Z,1.20
2019-03-08T05:14:15.258Z,1.20
2019-03-08T05:16:43.870Z,1.43
2019-03-08T05:19:12.527Z,1.40
2019-03-08T05:21:41.206Z,1.30
2019-03-08T05:24:10.330Z,1.30
2019-03-08T05:26:38.937Z,2.60
2019-03-08T05:29:07.772Z,1.13
2019-03-08T05:31:36.378Z,1.00
2019-03-08T05:34:05.085Z,1.10
2019-03-08T05:36:33.951Z,1.77
2019-03-08T05:39:02.587Z,1.90
2019-03-08T05:41:31.192Z,1.60
2019-03-08T05:43:59.787Z,5.30
2019-03-08T05:46:28.606Z,2.30
2019-03-08T05:48:57.504Z,4.97
2019-03-08T05:51:26.082Z,7.57
2019-03-08T05:53:55.205Z,2.83
2019-03-08T05:56:23.876Z,3.70
2019-03-08T05:58:52.466Z,2.43
2019-03-08T06:01:21.286Z,4.10
2019-03-08T06:03:51.433Z,2.50
2019-03-08T06:06:20.098Z,2.60
2019-03-08T06:08:48.859Z,2.60
2019-03-08T06:11:17.825Z,2.60
2019-03-08T06:13:46.433Z,4.07
2019-03-08T06:16:15.015Z,2.83
2019-03-08T06:18:43.695Z,6.73
2019-03-08T06:21:12.352Z,2.33
2019-03-08T06:23:41.236Z,1.90
2019-03-08T06:26:09.846Z,2.30
2019-03-08T06:28:38.447Z,2.60
2019-03-08T06:31:07.075Z,2.70
2019-03-08T06:33:35.675Z,3.20
2019-03-08T06:36:04.467Z,4.97
2019-03-08T06:38:33.392Z,3.63
2019-03-08T06:41:02.364Z,6.07
2019-03-08T06:43:32.049Z,6.83
2019-03-08T06:46:00.724Z,6.47
2019-03-08T06:48:29.431Z,5.83
2019-03-08T06:50:58.061Z,9.78
2019-03-08T06:53:27.329Z,7.50
2019-03-08T06:55:56.015Z,7.73
2019-03-08T06:58:36.310Z,8.23
2019-03-08T07:01:11.147Z,5.20
2019-03-08T07:03:39.753Z,13.70
2019-03-08T07:06:08.527Z,7.27
2019-03-08T07:08:37.095Z,9.50
2019-03-08T07:11:05.758Z,9.78
2019-03-08T07:13:34.346Z,9.17
2019-03-08T07:16:02.979Z,10.57
2019-03-08T07:18:31.558Z,11.43
2019-03-08T07:21:04.982Z,9.37
2019-03-08T07:23:40.585Z,5.60
2019-03-08T07:26:17.340Z,8.70
2019-03-08T07:29:03.899Z,7.50
2019-03-08T07:31:57.683Z,5.63
2019-03-08T07:34:32.052Z,10.03
2019-03-08T07:37:20.123Z,14.37
2019-03-08T07:40:15.776Z,10.93
2019-03-08T07:43:02.143Z,9.93
2019-03-08T07:45:48.745Z,8.43
2019-03-08T07:48:39.210Z,12.30
2019-03-08T07:51:35.970Z,14.33
2019-03-08T07:54:29.613Z,12.20
2019-03-08T07:57:24.446Z,9.73
2019-03-08T08:00:07.562Z,12.90
2019-03-08T08:02:46.248Z,10.07
2019-03-08T08:05:22.462Z,12.60
2019-03-08T08:08:00.830Z,15.67
2019-03-08T08:10:39.897Z,14.43
2019-03-08T08:13:26.400Z,16.13
2019-03-08T08:16:06.547Z,10.60
2019-03-08T08:18:42.157Z,13.30
2019-03-08T08:21:19.341Z,23.80
2019-03-08T08:24:07.429Z,18.53
2019-03-08T08:26:53.807Z,17.13
2019-03-08T08:29:50.454Z,9.60
2019-03-08T08:32:36.559Z,11.20
2019-03-08T08:35:13.662Z,15.93
2019-03-08T08:37:53.219Z,14.27
2019-03-08T08:40:32.930Z,9.93
2019-03-08T08:43:25.365Z,21.80
2019-03-08T08:46:07.880Z,13.73
2019-03-08T08:49:01.669Z,19.13
2019-03-08T08:51:49.306Z,15.80
2019-03-08T08:54:36.897Z,14.17
2019-03-08T08:57:25.840Z,19.70
2019-03-08T09:00:01.642Z,25.07
2019-03-08T09:02:58.182Z,23.43
2019-03-08T09:05:34.584Z,23.03
2019-03-08T09:08:23.655Z,23.37
2019-03-08T09:11:20.660Z,30.33
2019-03-08T09:13:56.308Z,20.30
2019-03-08T09:16:42.026Z,20.77
2019-03-08T09:19:18.038Z,26.40
2019-03-08T09:21:55.603Z,17.83
2019-03-08T09:24:29.967Z,28.23
2019-03-08T09:27:13.040Z,21.60
2019-03-08T09:29:56.288Z,18.40
2019-03-08T09:32:47.063Z,28.90
2019-03-08T09:35:26.441Z,21.43
2019-03-08T09:38:03.341Z,23.93
2019-03-08T09:40:54.135Z,24.23
2019-03-08T09:43:44.913Z,15.87
2019-03-08T09:46:38.460Z,25.50
2019-03-08T09:49:17.773Z,20.80
2019-03-08T09:51:53.460Z,17.33
2019-03-08T09:54:28.987Z,24.67
2019-03-08T09:57:16.625Z,14.73
2019-03-08T09:59:56.575Z,21.33
2019-03-08T10:02:48.406Z,15.93
2019-03-08T10:05:24.654Z,24.53
2019-03-08T10:08:10.869Z,21.30
2019-03-08T10:10:47.123Z,18.03
2019-03-08T10:13:31.747Z,26.47
2019-03-08T10:16:04.260Z,15.60
2019-03-08T10:18:45.829Z,20.00
2019-03-08T10:21:37.509Z,19.43
2019-03-08T10:24:21.029Z,22.37
2019-03-08T10:27:07.141Z,28.40
2019-03-08T10:30:00.809Z,18.47
2019-03-08T10:32:51.495Z,15.20
2019-03-08T10:35:33.790Z,14.87
2019-03-08T10:38:12.623Z,11.83
2019-03-08T10:40:48.929Z,11.83
2019-03-08T10:43:31.359Z,11.50
2019-03-08T10:46:31.038Z,16.50
2019-03-08T10:49:12.031Z,14.73
2019-03-08T10:52:01.488Z,15.23
2019-03-08T10:54:36.865Z,11.07
2019-03-08T10:57:15.359Z,16.73
2019-03-08T10:59:52.587Z,22.43
2019-03-08T11:02:33.913Z,18.50
2019-03-08T11:05:08.970Z,13.63
2019-03-08T11:07:44.075Z,13.93
2019-03-08T11:10:30.542Z,19.13
2019-03-08T11:13:29.080Z,12.90
2019-03-08T11:16:15.126Z,16.60
2019-03-08T11:19:09.036Z,12.13
2019-03-08T11:21:59.098Z,20.27
2019-03-08T11:24:52.932Z,16.40
2019-03-08T11:27:32.004Z,22.73
2019-03-08T11:30:25.986Z,15.30
2019-03-08T11:33:25.926Z,26.83
2019-03-08T11:36:29.110Z,19.43
2019-03-08T11:39:12.210Z,14.67
2019-03-08T11:41:50.284Z,17.93
2019-03-08T11:44:30.344Z,22.60
2019-03-08T11:47:23.732Z,14.60
2019-03-08T11:50:30.082Z,15.90
2019-03-08T11:53:23.321Z,17.50
2019-03-08T11:55:58.479Z,15.63
2019-03-08T11:58:38.477Z,29.03
2019-03-08T12:01:24.814Z,12.03
2019-03-08T12:04:11.515Z,12.07
2019-03-08T12:06:46.752Z,13.07
2019-03-08T12:09:47.005Z,14.63
2019-03-08T12:12:40.978Z,14.50
2019-03-08T12:15:28.790Z,17.90
2019-03-08T12:18:15.169Z,15.00
2019-03-08T12:21:06.044Z,14.53
2019-03-08T12:23:44.080Z,12.27
2019-03-08T12:26:30.368Z,11.30
2019-03-08T12:29:21.018Z,13.77
2019-03-08T12:32:08.370Z,13.67
2019-03-08T12:34:43.498Z,18.80
2019-03-08T12:37:26.529Z,15.67
2019-03-08T12:40:00.655Z,9.63
2019-03-08T12:42:55.442Z,12.23
2019-03-08T12:45:39.240Z,8.37
2019-03-08T12:48:23.602Z,9.33
2019-03-08T12:51:09.974Z,10.40
2019-03-08T12:53:56.711Z,13.80
2019-03-08T12:56:43.044Z,17.00
2019-03-08T12:59:35.031Z,17.33
2019-03-08T13:02:15.400Z,14.17
2019-03-08T13:04:55.901Z,13.03
2019-03-08T13:07:41.375Z,12.27
2019-03-08T13:10:13.094Z,22.33
2019-03-08T13:12:42.088Z,14.23
2019-03-08T13:15:12.838Z,12.90
2019-03-08T13:17:41.461Z,13.60
2019-03-08T13:20:15.495Z,11.57
2019-03-08T13:22:44.321Z,14.00
2019-03-08T13:25:13.316Z,14.60
2019-03-08T13:27:43.283Z,14.87
2019-03-08T13:30:15.098Z,15.17
2019-03-08T13:32:44.168Z,16.93
2019-03-08T13:35:13.229Z,15.77
2019-03-08T13:37:42.053Z,22.90
2019-03-08T13:40:11.950Z,8.73
2019-03-08T13:42:40.536Z,8.90
2019-03-08T13:45:11.261Z,7.87
2019-03-08T13:47:39.838Z,12.20
2019-03-08T13:50:09.432Z,11.30
2019-03-08T13:52:38.293Z,9.37
2019-03-08T13:55:09.747Z,12.80
2019-03-08T13:57:38.704Z,11.87
2019-03-08T14:00:09.674Z,20.17
2019-03-08T14:02:38.391Z,9.40
2019-03-08T14:05:07.481Z,10.47
2019-03-08T14:07:36.267Z,13.27
2019-03-08T14:10:05.944Z,27.20
2019-03-08T14:12:34.675Z,14.53
2019-03-08T14:15:03.633Z,12.37
2019-03-08T14:17:32.314Z,19.07
2019-03-08T14:20:00.908Z,13.50
2019-03-08T14:22:30.688Z,13.00
2019-03-08T14:24:59.306Z,14.83
2019-03-08T14:27:27.917Z,21.43
2019-03-08T14:29:59.112Z,9.60
2019-03-08T14:32:27.315Z,10.40
2019-03-08T14:34:56.256Z,18.73
2019-03-08T14:37:25.133Z,10.47
2019-03-08T14:39:54.062Z,9.80
2019-03-08T14:42:40.430Z,11.33
2019-03-08T14:45:21.052Z,11.30
2019-03-08T14:47:52.131Z,8.37
2019-03-08T14:50:20.711Z,11.27
2019-03-08T14:52:49.439Z,8.97
2019-03-08T14:55:18.925Z,11.87
2019-03-08T14:57:48.476Z,12.73
2019-03-08T15:00:19.300Z,14.77
2019-03-08T15:02:48.683Z,7.33
2019-03-08T15:05:19.081Z,8.97
2019-03-08T15:07:47.665Z,6.50
2019-03-08T15:10:17.574Z,17.83
2019-03-08T15:12:48.976Z,9.20
2019-03-08T15:15:17.530Z,9.50
2019-03-08T15:17:49.580Z,4.50
2019-03-08T15:20:17.482Z,9.07
2019-03-08T15:22:46.346Z,6.97
2019-03-08T15:25:15.256Z,5.70
2019-03-08T15:27:43.879Z,7.73
2019-03-08T15:30:14.218Z,6.23
2019-03-08T15:32:42.922Z,5.37
2019-03-08T15:35:12.223Z,9.87
2019-03-08T15:37:44.130Z,7.40
2019-03-08T15:40:13.521Z,7.60
2019-03-08T15:42:42.401Z,9.50
2019-03-08T15:45:11.381Z,9.50
2019-03-08T15:47:40.591Z,5.07
2019-03-08T15:50:11.549Z,22.80
2019-03-08T15:52:40.387Z,7.73
2019-03-08T15:55:09.040Z,8.97
2019-03-08T15:57:38.312Z,8.93
2019-03-08T16:00:10.419Z,13.13
2019-03-08T16:02:39.420Z,12.17
2019-03-08T16:05:08.557Z,15.03
2019-03-08T16:07:37.195Z,18.93
2019-03-08T16:10:07.672Z,12.87
2019-03-08T16:12:36.294Z,8.50
2019-03-08T16:15:05.137Z,13.03
2019-03-08T16:17:34.037Z,9.50
2019-03-08T16:20:03.855Z,11.77
2019-03-08T16:22:32.857Z,13.80
2019-03-08T16:25:01.470Z,11.90
2019-03-08T16:27:30.260Z,13.77
2019-03-08T16:30:03.082Z,10.40
2019-03-08T16:33:03.872Z,16.33
2019-03-08T16:35:41.079Z,12.70
2019-03-08T16:38:14.472Z,13.63
2019-03-08T16:40:50.816Z,12.23
2019-03-08T16:43:34.598Z,14.63
2019-03-08T16:46:21.372Z,15.20
2019-03-08T16:48:58.178Z,16.40
2019-03-08T16:51:40.726Z,10.03
2019-03-08T16:54:46.468Z,10.07
2019-03-08T16:57:21.983Z,11.03
2019-03-08T17:00:27.533Z,12.27
2019-03-08T17:03:13.912Z,15.30
2019-03-08T17:05:55.403Z,11.63
2019-03-08T17:08:41.692Z,10.60
2019-03-08T17:11:27.159Z,11.90
2019-03-08T17:14:14.899Z,17.60
2019-03-08T17:17:02.169Z,12.10
2019-03-08T17:19:40.302Z,9.63
2019-03-08T17:22:21.252Z,8.00
2019-03-08T17:25:07.378Z,9.20
2019-03-08T17:27:55.064Z,12.73
2019-03-08T17:30:51.951Z,8.40
2019-03-08T17:33:39.595Z,5.97
2019-03-08T17:36:25.991Z,9.73
2019-03-08T17:39:17.225Z,18.70
2019-03-08T17:41:55.878Z,7.90
2019-03-08T17:44:46.187Z,4.63
2019-03-08T17:47:28.269Z,5.75
2019-03-08T17:50:15.921Z,11.43
2019-03-08T17:53:12.945Z,7.40
2019-03-08T17:55:49.206Z,6.87
2019-03-08T17:58:32.784Z,6.07
2019-03-08T18:01:18.925Z,9.67
2019-03-08T18:04:09.586Z,12.60
2019-03-08T18:06:54.977Z,7.50
2019-03-08T18:09:39.015Z,10.90
2019-03-08T18:12:25.135Z,10.63
2019-03-08T18:15:07.858Z,7.43
2019-03-08T18:17:53.698Z,8.40
2019-03-08T18:20:50.710Z,4.13
2019-03-08T18:23:32.267Z,15.70
2019-03-08T18:26:09.155Z,5.67
2019-03-08T18:28:56.925Z,7.03
2019-03-08T18:31:47.116Z,6.77
2019-03-08T18:34:35.690Z,8.23
2019-03-08T18:37:26.258Z,4.43
2019-03-08T18:40:12.790Z,5.63
2019-03-08T18:42:48.698Z,9.53
2019-03-08T18:45:33.495Z,4.97
2019-03-08T18:48:21.145Z,12.87
2019-03-08T18:51:17.943Z,7.60
2019-03-08T18:54:04.899Z,7.37
2019-03-08T18:56:49.065Z,6.83
2019-03-08T18:59:24.328Z,5.77
2019-03-08T19:02:30.283Z,7.70
2019-03-08T19:05:17.290Z,6.20
2019-03-08T19:07:56.543Z,7.10
2019-03-08T19:10:38.535Z,12.20
2019-03-08T19:13:24.975Z,8.50
2019-03-08T19:15:59.508Z,11.47
2019-03-08T19:18:44.361Z,6.20
2019-03-08T19:21:37.825Z,14.80
2019-03-08T19:24:14.737Z,10.60
2019-03-08T19:27:14.665Z,11.10
2019-03-08T19:30:00.981Z,8.03
2019-03-08T19:33:00.917Z,7.63
2019-03-08T19:35:47.224Z,6.13
2019-03-08T19:38:24.787Z,4.10
2019-03-08T19:41:17.655Z,10.27
2019-03-08T19:44:11.571Z,4.63
2019-03-08T19:46:58.017Z,5.33
2019-03-08T19:49:32.656Z,7.13
2019-03-08T19:52:19.444Z,9.43
2019-03-08T19:55:04.306Z,6.43
2019-03-08T19:57:40.998Z,9.20
2019-03-08T20:00:22.374Z,6.17
2019-03-08T20:03:05.277Z,7.37
2019-03-08T20:05:39.786Z,8.20
2019-03-08T20:08:22.800Z,13.17
2019-03-08T20:10:59.139Z,8.20
2019-03-08T20:13:45.535Z,14.37
2019-03-08T20:16:25.867Z,7.93
2019-03-08T20:19:25.839Z,11.30
2019-03-08T20:22:13.719Z,13.90
2019-03-08T20:25:00.566Z,11.90
2019-03-08T20:27:38.148Z,14.73
2019-03-08T20:30:18.773Z,10.97
2019-03-08T20:33:08.195Z,9.93
2019-03-08T20:35:47.777Z,10.97
2019-03-08T20:38:33.937Z,17.27
2019-03-08T20:41:19.169Z,13.70
2019-03-08T20:44:13.047Z,12.47
2019-03-08T20:46:48.780Z,9.63
2019-03-08T20:49:17.425Z,14.27
2019-03-08T20:51:46.025Z,14.10
2019-03-08T20:54:14.744Z,16.33
2019-03-08T20:56:43.579Z,12.63
2019-03-08T20:59:12.216Z,13.00
2019-03-08T21:01:40.832Z,12.30
2019-03-08T21:04:09.430Z,14.13
2019-03-08T21:06:38.423Z,13.13
2019-03-08T21:09:07.911Z,12.20
2019-03-08T21:11:36.805Z,8.20
2019-03-08T21:14:05.408Z,11.87
2019-03-08T21:16:34.298Z,7.27
2019-03-08T21:19:02.922Z,10.83
2019-03-08T21:21:31.994Z,10.27
2019-03-08T21:24:00.589Z,5.57
2019-03-08T21:26:29.748Z,9.10
2019-03-08T21:28:58.667Z,10.67
2019-03-08T21:31:27.263Z,4.33
2019-03-08T21:33:56.410Z,7.93
2019-03-08T21:36:25.080Z,6.33
2019-03-08T21:38:54.165Z,11.37
2019-03-08T21:41:22.762Z,14.90
2019-03-08T21:43:51.354Z,7.23
2019-03-08T21:46:20.323Z,9.30
2019-03-08T21:48:49.167Z,14.63
2019-03-08T21:51:17.853Z,13.10
2019-03-08T21:53:46.473Z,16.03
2019-03-08T21:56:15.580Z,12.40
2019-03-08T21:58:44.206Z,9.20
2019-03-08T22:01:12.834Z,11.83
2019-03-08T22:03:43.371Z,11.23
2019-03-08T22:06:12.515Z,16.03
2019-03-08T22:08:50.840Z,12.40
2019-03-08T22:11:32.537Z,15.67
2019-03-08T22:14:01.423Z,8.67
2019-03-08T22:16:30.059Z,17.97
2019-03-08T22:18:58.879Z,10.70
2019-03-08T22:21:27.733Z,13.50
2019-03-08T22:23:56.377Z,16.60
2019-03-08T22:26:25.285Z,11.97
2019-03-08T22:28:53.904Z,15.80
2019-03-08T22:31:22.561Z,11.70
2019-03-08T22:33:51.362Z,10.23
2019-03-08T22:36:20.344Z,18.70
2019-03-08T22:38:48.942Z,16.67
2019-03-08T22:41:17.776Z,15.10
2019-03-08T22:43:46.415Z,14.23
2019-03-08T22:46:15.046Z,17.77
2019-03-08T22:51:04.261Z,17.60
2019-03-08T22:53:33.275Z,11.03
2019-03-08T22:56:02.451Z,14.07
2019-03-08T22:58:31.079Z,14.27
2019-03-08T23:01:06.449Z,12.60
2019-03-08T23:03:35.045Z,14.70
2019-03-08T23:06:03.666Z,15.97
2019-03-08T23:08:32.700Z,17.10
2019-03-08T23:11:01.580Z,12.77
2019-03-08T23:13:30.392Z,11.87
2019-03-08T23:15:59.308Z,23.70
2019-03-08T23:18:27.984Z,14.50
2019-03-08T23:20:56.837Z,16.97
2019-03-08T23:23:25.591Z,18.83
2019-03-08T23:25:54.204Z,11.13
2019-03-08T23:28:40.856Z,13.10
2019-03-08T23:31:19.015Z,15.30
2019-03-08T23:33:47.644Z,19.57
2019-03-08T23:36:17.192Z,13.87
2019-03-08T23:38:45.770Z,15.50
2019-03-08T23:41:14.740Z,16.93
2019-03-08T23:43:43.684Z,17.70
2019-03-08T23:46:12.305Z,14.27
2019-03-08T23:48:40.963Z,13.90
2019-03-08T23:51:09.808Z,16.63
2019-03-08T23:53:38.412Z,16.67
2019-03-08T23:56:07.020Z,11.90
2019-03-08T23:58:35.894Z,11.70
